Time;durP1;ratioP1;P1;durP2;ratioP2;P2;SDS_P1;SDS_P2;PMS_P1;PMS_P2;Temp;Humidity;BMP_temperature;BMP_pressure;BME280_temperature;BME280_humidity;BME280_pressure;Samples;Min_cycle;Max_cycle;Signal;HPM_P1;HPM_P2
2023/05/13 00:00:46;;;;;;;5.33;3.80;;;15.40;87.90;;;;;;5031674;28;20464;-66
2023/05/13 00:03:12;;;;;;;7.83;4.10;;;15.30;88.00;;;;;;5022900;28;20186;-66
2023/05/13 00:05:39;;;;;;;4.10;3.70;;;15.30;87.70;;;;;;5029884;28;20187;-70
2023/05/13 00:08:06;;;;;;;5.23;4.33;;;15.30;87.40;;;;;;5029374;28;20211;-67
2023/05/13 00:10:33;;;;;;;7.13;5.03;;;15.30;87.70;;;;;;5014253;28;20504;-67
2023/05/13 00:12:58;;;;;;;4.00;3.43;;;15.20;88.10;;;;;;5013599;28;20879;-67
2023/05/13 00:15:24;;;;;;;8.80;3.70;;;15.20;88.40;;;;;;5012295;28;20451;-68
2023/05/13 00:17:50;;;;;;;4.60;4.20;;;15.20;88.30;;;;;;5011877;28;20452;-68
2023/05/13 00:20:16;;;;;;;4.23;3.83;;;15.20;88.90;;;;;;5015595;28;20180;-67
2023/05/13 00:22:41;;;;;;;5.70;4.63;;;15.10;88.60;;;;;;5014667;28;20783;-68
2023/05/13 00:25:07;;;;;;;8.03;5.10;;;15.10;89.20;;;;;;5014147;28;20529;-67
2023/05/13 00:27:33;;;;;;;5.33;4.40;;;15.10;89.10;;;;;;5015647;28;20195;-68
2023/05/13 00:29:59;;;;;;;5.23;3.80;;;15.00;89.40;;;;;;5014091;28;20427;-68
2023/05/13 00:32:25;;;;;;;4.27;3.80;;;14.90;89.70;;;;;;5013789;28;20288;-67
2023/05/13 00:34:50;;;;;;;6.13;3.83;;;14.90;90.00;;;;;;5013582;28;20208;-68
2023/05/13 00:37:16;;;;;;;5.30;4.80;;;14.90;90.00;;;;;;5013526;28;20184;-67
2023/05/13 00:39:42;;;;;;;6.17;4.13;;;14.90;90.10;;;;;;5013546;28;20199;-68
2023/05/13 00:42:11;;;;;;;5.70;3.90;;;14.90;90.30;;;;;;5013508;28;20183;-67
2023/05/13 00:44:37;;;;;;;7.60;3.90;;;14.80;90.20;;;;;;5012335;28;20490;-67
2023/05/13 00:47:04;;;;;;;5.40;3.97;;;14.70;90.60;;;;;;5017606;28;20925;-68
2023/05/13 00:49:34;;;;;;;4.47;4.07;;;14.70;90.50;;;;;;5028119;28;20526;-67
2023/05/13 00:52:01;;;;;;;6.90;4.27;;;14.80;90.60;;;;;;5017588;28;20446;-68
2023/05/13 00:54:28;;;;;;;4.53;3.77;;;14.70;90.50;;;;;;5032422;28;20805;-68
2023/05/13 00:56:56;;;;;;;4.03;3.50;;;14.70;90.60;;;;;;5026432;28;20499;-66
2023/05/13 00:59:24;;;;;;;6.00;3.90;;;14.80;90.60;;;;;;5035312;28;20491;-68
2023/05/13 01:02:07;;;;;;;5.40;3.70;;;14.80;90.60;;;;;;5027174;28;20414;-67
2023/05/13 01:04:51;;;;;;;7.80;4.40;;;14.80;90.60;;;;;;5028810;28;20448;-67
2023/05/13 01:07:40;;;;;;;5.50;3.87;;;14.80;90.70;;;;;;5024824;28;20740;-67
2023/05/13 01:10:13;;;;;;;6.03;3.93;;;14.80;90.70;;;;;;5033639;28;20407;-68
2023/05/13 01:12:42;;;;;;;4.63;3.40;;;14.80;90.70;;;;;;5026286;28;20426;-68
2023/05/13 01:15:18;;;;;;;5.33;3.50;;;14.70;90.80;;;;;;5036101;28;21070;-67
2023/05/13 01:18:24;;;;;;;4.87;4.27;;;14.70;91.10;;;;;;5026302;28;20417;-67
2023/05/13 01:20:49;;;;;;;5.40;4.30;;;14.70;91.10;;;;;;5021757;28;20418;-68
2023/05/13 01:23:15;;;;;;;5.43;3.77;;;14.70;91.20;;;;;;5031882;28;20418;-67
2023/05/13 01:25:40;;;;;;;4.50;4.10;;;14.60;91.40;;;;;;5033988;28;20171;-68
2023/05/13 01:28:07;;;;;;;4.63;3.70;;;14.60;91.40;;;;;;5033067;28;20203;-67
2023/05/13 01:30:34;;;;;;;5.37;4.00;;;14.60;91.30;;;;;;5032851;28;20657;-67
2023/05/13 01:33:01;;;;;;;4.40;4.00;;;14.60;91.40;;;;;;5032840;28;20433;-67
2023/05/13 01:35:28;;;;;;;6.10;4.73;;;14.60;91.40;;;;;;5032765;28;20460;-67
2023/05/13 01:37:56;;;;;;;4.97;3.53;;;14.50;91.50;;;;;;5033554;28;20439;-67
2023/05/13 01:40:21;;;;;;;5.43;3.90;;;14.50;91.70;;;;;;5037232;28;20433;-68
2023/05/13 01:42:47;;;;;;;7.23;4.63;;;14.40;91.70;;;;;;5022885;28;20973;-67
2023/05/13 01:45:13;;;;;;;4.20;3.80;;;14.40;91.90;;;;;;5030607;28;20505;-68
2023/05/13 01:47:39;;;;;;;4.23;3.93;;;14.40;91.80;;;;;;5033362;28;20175;-68
2023/05/13 01:50:05;;;;;;;4.83;4.23;;;14.30;92.00;;;;;;5032230;28;20928;-65
2023/05/13 01:52:31;;;;;;;5.07;4.40;;;14.30;92.10;;;;;;5025151;28;20659;-68
2023/05/13 01:54:56;;;;;;;5.20;4.70;;;14.30;92.20;;;;;;5033549;28;20988;-68
2023/05/13 01:57:22;;;;;;;6.40;3.83;;;14.20;92.30;;;;;;5032403;28;20441;-67
2023/05/13 01:59:48;;;;;;;3.83;3.43;;;14.20;92.30;;;;;;5028773;28;20204;-67
2023/05/13 02:02:13;;;;;;;5.93;4.40;;;14.20;92.40;;;;;;5015951;28;20199;-68
2023/05/13 02:04:39;;;;;;;7.77;5.90;;;14.20;92.20;;;;;;5032708;28;20293;-67
2023/05/13 02:07:05;;;;;;;3.77;3.47;;;14.20;92.40;;;;;;5023056;28;20203;-67
2023/05/13 02:09:30;;;;;;;4.87;3.70;;;14.20;92.40;;;;;;5033121;28;20199;-68
2023/05/13 02:11:56;;;;;;;5.00;3.33;;;14.10;92.50;;;;;;5032262;28;20630;-67
2023/05/13 02:14:21;;;;;;;8.13;4.07;;;14.10;92.60;;;;;;5038679;28;20182;-67
2023/05/13 02:16:47;;;;;;;4.90;4.30;;;14.00;92.80;;;;;;5033569;28;20205;-67
2023/05/13 02:19:12;;;;;;;6.53;4.50;;;14.00;92.80;;;;;;5031478;28;20187;-68
2023/05/13 02:21:38;;;;;;;6.37;3.70;;;13.90;92.80;;;;;;5032719;28;20583;-67
2023/05/13 02:24:04;;;;;;;5.87;4.40;;;13.90;92.90;;;;;;5035023;28;20162;-67
2023/05/13 02:26:30;;;;;;;4.50;4.10;;;13.90;93.10;;;;;;5035325;28;20186;-68
2023/05/13 02:28:55;;;;;;;6.93;4.37;;;13.80;93.30;;;;;;5037271;28;21008;-67
2023/05/13 02:31:21;;;;;;;8.63;4.33;;;13.80;93.30;;;;;;5034705;28;20728;-67
2023/05/13 02:33:46;;;;;;;4.30;3.63;;;13.80;93.30;;;;;;5035592;28;20186;-66
2023/05/13 02:36:12;;;;;;;4.57;3.87;;;13.80;93.40;;;;;;5034950;28;20316;-68
2023/05/13 02:38:37;;;;;;;5.63;3.70;;;13.80;94.10;;;;;;5034166;28;20264;-67
2023/05/13 02:41:03;;;;;;;4.93;3.90;;;13.80;93.50;;;;;;5035257;28;20205;-67
2023/05/13 02:43:29;;;;;;;4.67;4.17;;;13.80;93.50;;;;;;5036403;28;20286;-68
2023/05/13 02:45:54;;;;;;;4.40;3.77;;;13.80;93.50;;;;;;5037252;28;20511;-66
2023/05/13 02:48:20;;;;;;;6.40;4.80;;;13.80;93.60;;;;;;5042310;28;20789;-67
2023/05/13 02:50:46;;;;;;;7.57;4.00;;;13.80;93.40;;;;;;5036929;28;20181;-68
2023/05/13 02:53:11;;;;;;;5.40;4.90;;;13.90;93.40;;;;;;5035433;28;20182;-65
2023/05/13 02:55:37;;;;;;;4.03;3.63;;;13.90;93.20;;;;;;5030419;28;20238;-66
2023/05/13 02:58:03;;;;;;;4.63;4.03;;;13.90;93.10;;;;;;5025641;28;20258;-67
2023/05/13 03:00:29;;;;;;;8.00;3.93;;;13.90;93.00;;;;;;5033150;28;20275;-67
2023/05/13 03:02:55;;;;;;;5.63;4.13;;;13.90;92.90;;;;;;5037867;28;21051;-68
2023/05/13 03:05:20;;;;;;;5.33;4.57;;;14.00;92.90;;;;;;5034993;28;20181;-67
2023/05/13 03:07:46;;;;;;;7.97;4.43;;;13.90;92.80;;;;;;5029727;28;20433;-68
2023/05/13 03:10:12;;;;;;;5.07;4.60;;;13.90;92.70;;;;;;5036470;28;20575;-67
2023/05/13 03:12:38;;;;;;;4.83;4.40;;;13.90;92.80;;;;;;5033143;28;20182;-67
2023/05/13 03:15:04;;;;;;;7.77;4.10;;;13.90;92.80;;;;;;5036439;28;20754;-68
2023/05/13 03:17:30;;;;;;;5.70;4.37;;;13.90;92.80;;;;;;5033453;28;20208;-66
2023/05/13 03:19:56;;;;;;;7.87;4.33;;;13.90;92.90;;;;;;5037802;28;20844;-67
2023/05/13 03:22:22;;;;;;;4.50;3.93;;;13.90;92.80;;;;;;5034266;28;20439;-68
2023/05/13 03:24:47;;;;;;;5.97;4.37;;;13.80;92.90;;;;;;5030308;28;20409;-68
2023/05/13 03:27:13;;;;;;;4.63;4.23;;;13.80;92.90;;;;;;5035691;28;20508;-67
2023/05/13 03:29:39;;;;;;;5.43;4.60;;;13.70;93.10;;;;;;5030016;28;20195;-67
2023/05/13 03:32:05;;;;;;;4.30;3.97;;;13.70;92.90;;;;;;5030497;28;20546;-68
2023/05/13 03:34:32;;;;;;;5.13;4.00;;;13.70;93.00;;;;;;5035195;28;20168;-67
2023/05/13 03:36:57;;;;;;;4.50;4.10;;;13.60;93.10;;;;;;5031251;28;20414;-67
2023/05/13 03:39:25;;;;;;;5.33;3.50;;;13.60;93.10;;;;;;5034216;28;20436;-67
2023/05/13 03:41:50;;;;;;;6.60;4.43;;;13.60;93.00;;;;;;5037924;28;20186;-66
2023/05/13 03:44:16;;;;;;;7.13;4.40;;;13.60;93.00;;;;;;5036659;28;20816;-68
2023/05/13 03:46:42;;;;;;;4.07;3.67;;;13.60;93.10;;;;;;5034811;28;20304;-67
2023/05/13 03:49:07;;;;;;;4.87;3.87;;;13.60;93.30;;;;;;5035781;28;20256;-67
2023/05/13 03:51:33;;;;;;;4.37;3.97;;;13.60;93.40;;;;;;5032517;28;20189;-68
2023/05/13 03:53:59;;;;;;;4.47;4.07;;;13.60;93.30;;;;;;5037441;28;20554;-69
2023/05/13 03:56:25;;;;;;;5.10;3.97;;;13.60;93.30;;;;;;5039369;28;20276;-68
2023/05/13 03:58:50;;;;;;;5.73;4.37;;;13.60;93.30;;;;;;5029434;28;20537;-67
2023/05/13 04:01:16;;;;;;;8.23;4.77;;;13.60;93.50;;;;;;5027466;28;20175;-67
2023/05/13 04:03:44;;;;;;;4.27;3.87;;;13.60;93.50;;;;;;5032694;28;20604;-67
2023/05/13 04:06:09;;;;;;;10.30;3.67;;;13.60;93.50;;;;;;5032384;28;20673;-68
2023/05/13 04:08:35;;;;;;;6.80;4.23;;;13.60;93.40;;;;;;5039223;28;20476;-67
2023/05/13 04:11:01;;;;;;;9.20;4.80;;;13.60;93.50;;;;;;5025200;28;20187;-68
2023/05/13 04:13:26;;;;;;;10.80;4.60;;;13.60;93.50;;;;;;5032205;28;20248;-67
2023/05/13 04:15:54;;;;;;;4.10;3.70;;;13.60;93.20;;;;;;5024091;28;20223;-66
2023/05/13 04:18:20;;;;;;;4.10;3.80;;;13.60;93.40;;;;;;5033300;28;20293;-67
2023/05/13 04:20:45;;;;;;;4.20;3.80;;;13.60;93.40;;;;;;5033030;28;20441;-67
2023/05/13 04:23:11;;;;;;;4.03;3.70;;;13.70;93.50;;;;;;5033777;28;20411;-67
2023/05/13 04:25:36;;;;;;;4.93;3.90;;;13.70;93.30;;;;;;5038851;28;20607;-67
2023/05/13 04:28:02;;;;;;;6.20;4.37;;;13.70;93.30;;;;;;5031894;28;20832;-68
2023/05/13 04:30:28;;;;;;;9.43;5.13;;;13.80;93.30;;;;;;5040203;28;20182;-68
2023/05/13 04:32:53;;;;;;;5.30;4.10;;;13.80;93.20;;;;;;5027011;28;20341;-67
2023/05/13 04:35:19;;;;;;;4.10;3.70;;;13.80;93.00;;;;;;5031504;28;20508;-66
2023/05/13 04:37:45;;;;;;;4.93;4.40;;;13.80;92.80;;;;;;5027092;28;20338;-67
2023/05/13 04:40:11;;;;;;;4.00;3.57;;;13.80;92.80;;;;;;5033527;28;20175;-68
2023/05/13 04:42:36;;;;;;;6.87;4.43;;;13.90;92.70;;;;;;5038872;28;20591;-67
2023/05/13 04:45:02;;;;;;;5.67;5.17;;;13.90;92.50;;;;;;5031594;28;20429;-69
2023/05/13 04:47:27;;;;;;;6.00;3.83;;;14.00;92.60;;;;;;5041465;28;20186;-67
2023/05/13 04:49:53;;;;;;;4.03;3.53;;;14.10;92.40;;;;;;5034334;28;20309;-68
2023/05/13 04:52:19;;;;;;;7.60;4.83;;;14.20;92.10;;;;;;5032577;28;20187;-67
2023/05/13 04:54:44;;;;;;;5.27;4.70;;;14.30;92.00;;;;;;5036552;28;20194;-67
2023/05/13 04:57:10;;;;;;;4.13;3.73;;;14.40;91.90;;;;;;5033086;28;20206;-68
2023/05/13 04:59:35;;;;;;;4.40;4.00;;;14.50;91.60;;;;;;5033791;28;20210;-68
2023/05/13 05:02:01;;;;;;;4.40;4.00;;;14.70;91.60;;;;;;5030785;28;20556;-68
2023/05/13 05:04:27;;;;;;;4.10;3.70;;;14.90;91.20;;;;;;5031582;28;20210;-67
2023/05/13 05:06:53;;;;;;;5.00;3.97;;;15.30;90.70;;;;;;5034289;28;20199;-67
2023/05/13 05:09:18;;;;;;;4.77;3.87;;;15.70;90.10;;;;;;5033278;28;20205;-66
2023/05/13 05:11:44;;;;;;;4.50;4.00;;;16.00;88.40;;;;;;5026881;28;20172;-67
2023/05/13 05:14:10;;;;;;;8.83;3.13;;;16.30;86.80;;;;;;5022068;28;20270;-66
2023/05/13 05:16:35;;;;;;;4.37;3.90;;;16.70;85.90;;;;;;5029337;28;20278;-67
2023/05/13 05:19:01;;;;;;;3.90;3.57;;;17.20;84.50;;;;;;5033046;28;20289;-66
2023/05/13 05:21:27;;;;;;;5.90;4.47;;;17.60;82.70;;;;;;5030751;28;20178;-68
2023/05/13 05:23:52;;;;;;;4.73;3.13;;;17.90;81.60;;;;;;5029913;28;20204;-67
2023/05/13 05:26:18;;;;;;;3.77;3.37;;;18.20;79.90;;;;;;5032704;28;20184;-66
2023/05/13 05:28:44;;;;;;;6.77;4.47;;;18.30;77.80;;;;;;5032812;28;20193;-67
2023/05/13 05:31:10;;;;;;;4.90;3.80;;;18.50;77.30;;;;;;5034847;28;20233;-68
2023/05/13 05:33:36;;;;;;;3.60;3.30;;;18.70;75.90;;;;;;5037159;28;20580;-66
2023/05/13 05:36:02;;;;;;;5.67;3.97;;;18.70;74.60;;;;;;5033221;28;20276;-66
2023/05/13 05:38:28;;;;;;;5.17;3.37;;;19.20;75.50;;;;;;5030575;28;20457;-67
2023/05/13 05:40:53;;;;;;;3.60;2.73;;;19.30;72.00;;;;;;5029841;28;20209;-67
2023/05/13 05:43:19;;;;;;;3.37;2.83;;;19.60;72.90;;;;;;5033315;28;20313;-68
2023/05/13 05:45:45;;;;;;;7.17;3.40;;;19.90;72.10;;;;;;5033874;28;20181;-66
2023/05/13 05:48:10;;;;;;;3.97;3.67;;;20.00;69.30;;;;;;5033465;28;20199;-67
2023/05/13 05:50:36;;;;;;;4.43;3.50;;;20.60;71.10;;;;;;5030080;28;20497;-66
2023/05/13 05:53:02;;;;;;;4.80;3.50;;;21.00;68.20;;;;;;5029371;28;20185;-66
2023/05/13 05:55:28;;;;;;;3.87;3.40;;;21.10;67.80;;;;;;5032469;28;20259;-66
2023/05/13 05:57:55;;;;;;;3.83;3.10;;;21.10;64.90;;;;;;5032938;28;20437;-66
2023/05/13 06:00:21;;;;;;;3.90;3.30;;;21.10;64.80;;;;;;5031376;28;20165;-66
2023/05/13 06:02:47;;;;;;;3.73;3.40;;;21.10;64.70;;;;;;5031265;28;20804;-66
2023/05/13 06:05:13;;;;;;;3.80;3.10;;;20.80;64.70;;;;;;5025494;28;20185;-65
2023/05/13 06:07:39;;;;;;;4.23;3.80;;;21.00;64.40;;;;;;5033652;28;20456;-66
2023/05/13 06:10:06;;;;;;;6.77;3.43;;;21.60;63.90;;;;;;5026076;28;20528;-66
2023/05/13 06:12:32;;;;;;;4.37;3.37;;;22.00;62.50;;;;;;5035016;28;20186;-67
2023/05/13 06:14:58;;;;;;;4.47;3.40;;;22.50;61.20;;;;;;5033410;28;20954;-67
2023/05/13 06:17:24;;;;;;;2.90;2.60;;;22.50;60.40;;;;;;5023208;28;20175;-68
2023/05/13 06:19:50;;;;;;;5.00;3.40;;;22.70;59.40;;;;;;5025923;28;20770;-68
2023/05/13 06:22:15;;;;;;;4.43;3.57;;;23.00;59.40;;;;;;5021871;28;20414;-69
2023/05/13 06:24:43;;;;;;;3.47;3.17;;;23.00;58.60;;;;;;5029074;28;20171;-66
2023/05/13 06:27:10;;;;;;;4.87;3.13;;;22.50;58.60;;;;;;5034542;28;20178;-67
2023/05/13 06:29:36;;;;;;;5.27;3.10;;;22.20;58.80;;;;;;5031457;28;20942;-68
2023/05/13 06:32:02;;;;;;;3.50;2.77;;;22.70;59.70;;;;;;5026103;28;20479;-68
2023/05/13 06:34:28;;;;;;;3.67;3.20;;;22.80;57.90;;;;;;5033261;28;20643;-68
2023/05/13 06:36:53;;;;;;;4.07;3.40;;;22.50;57.80;;;;;;5032104;28;20655;-67
2023/05/13 06:39:19;;;;;;;3.97;3.10;;;22.80;58.30;;;;;;5030446;28;20209;-67
2023/05/13 06:41:45;;;;;;;3.23;2.77;;;23.60;58.10;;;;;;5026642;28;20220;-67
2023/05/13 06:44:10;;;;;;;3.90;3.60;;;24.10;57.00;;;;;;5033399;28;20657;-67
2023/05/13 06:46:36;;;;;;;4.10;2.40;;;24.40;57.20;;;;;;5027449;28;20572;-67
2023/05/13 06:49:02;;;;;;;3.40;3.20;;;24.20;57.10;;;;;;5033627;28;20198;-67
2023/05/13 06:51:27;;;;;;;3.20;2.40;;;24.80;54.40;;;;;;5031712;28;20182;-68
2023/05/13 06:53:54;;;;;;;3.70;3.07;;;24.70;54.30;;;;;;5026635;28;20163;-67
2023/05/13 06:56:21;;;;;;;3.30;2.57;;;24.30;55.20;;;;;;5034086;28;20221;-68
2023/05/13 06:58:48;;;;;;;4.73;3.20;;;24.50;55.10;;;;;;5028076;28;20431;-67
2023/05/13 07:01:15;;;;;;;3.47;2.73;;;24.10;54.50;;;;;;5025029;28;20417;-67
2023/05/13 07:03:40;;;;;;;2.80;2.47;;;23.50;56.00;;;;;;5039354;28;20412;-73
2023/05/13 07:06:06;;;;;;;4.20;2.60;;;23.90;56.40;;;;;;5030057;28;20783;-70
2023/05/13 07:08:31;;;;;;;2.83;2.63;;;23.60;55.70;;;;;;5036977;28;20195;-67
2023/05/13 07:10:57;;;;;;;4.60;3.10;;;24.30;54.20;;;;;;5027776;28;20190;-67
2023/05/13 07:13:23;;;;;;;3.80;2.87;;;24.20;54.00;;;;;;5041609;28;20225;-67
2023/05/13 07:15:49;;;;;;;3.33;3.00;;;24.20;54.30;;;;;;5027917;28;20190;-67
2023/05/13 07:18:14;;;;;;;2.60;2.40;;;23.80;54.70;;;;;;5034018;28;20432;-66
2023/05/13 07:20:40;;;;;;;2.80;2.57;;;23.70;54.20;;;;;;5038763;28;20188;-68
2023/05/13 07:23:06;;;;;;;3.27;2.97;;;24.10;54.70;;;;;;5033092;28;20170;-67
2023/05/13 07:25:31;;;;;;;2.30;2.10;;;24.10;53.80;;;;;;5040447;28;20259;-66
2023/05/13 07:27:57;;;;;;;6.03;2.70;;;24.10;52.80;;;;;;5027919;28;20202;-67
2023/05/13 07:30:22;;;;;;;3.37;2.50;;;24.60;52.30;;;;;;5030986;28;20181;-66
2023/05/13 07:32:48;;;;;;;2.57;2.10;;;24.50;51.50;;;;;;5024989;28;20349;-67
2023/05/13 07:35:15;;;;;;;3.27;2.97;;;24.50;50.10;;;;;;5033647;28;20637;-67
2023/05/13 07:37:41;;;;;;;3.80;2.30;;;24.00;51.10;;;;;;5036684;28;20616;-67
2023/05/13 07:40:07;;;;;;;3.20;2.50;;;24.10;50.90;;;;;;5032919;28;20490;-66
2023/05/13 07:42:33;;;;;;;5.07;2.47;;;24.10;51.40;;;;;;5039753;28;20178;-66
2023/05/13 07:44:58;;;;;;;7.20;3.30;;;24.20;51.20;;;;;;5031867;28;20923;-67
2023/05/13 07:47:26;;;;;;;6.13;2.80;;;24.30;51.20;;;;;;5032728;28;20220;-66
2023/05/13 07:49:52;;;;;;;2.73;2.53;;;23.90;49.20;;;;;;5035857;28;20285;-66
2023/05/13 07:52:17;;;;;;;4.10;2.60;;;23.20;49.60;;;;;;5033898;28;20830;-65
2023/05/13 07:54:43;;;;;;;3.00;2.70;;;23.20;49.20;;;;;;5037643;28;20179;-66
2023/05/13 07:57:08;;;;;;;3.40;2.40;;;22.80;49.00;;;;;;5025604;28;20228;-65
2023/05/13 07:59:35;;;;;;;2.30;1.90;;;22.80;48.90;;;;;;5031549;28;20664;-66
2023/05/13 08:02:00;;;;;;;3.60;2.40;;;22.50;49.40;;;;;;5028533;28;20767;-66
2023/05/13 08:04:26;;;;;;;2.67;2.00;;;23.00;49.40;;;;;;5032316;28;20484;-67
2023/05/13 08:06:52;;;;;;;3.33;2.20;;;23.20;48.50;;;;;;5031266;28;20184;-65
2023/05/13 08:09:17;;;;;;;1.93;1.83;;;22.50;49.50;;;;;;5034402;28;20580;-66
2023/05/13 08:11:43;;;;;;;3.07;2.77;;;23.30;50.20;;;;;;5035759;28;20524;-67
2023/05/13 08:14:09;;;;;;;6.63;2.60;;;23.80;49.50;;;;;;5035424;28;20178;-67
2023/05/13 08:16:35;;;;;;;3.00;2.70;;;24.20;49.50;;;;;;5019327;28;20538;-65
2023/05/13 08:19:01;;;;;;;3.27;2.40;;;23.90;49.40;;;;;;5015053;28;20751;-67
2023/05/13 08:21:26;;;;;;;4.53;2.37;;;24.10;49.60;;;;;;5029954;28;20920;-66
2023/05/13 08:23:52;;;;;;;3.87;2.50;;;23.30;49.90;;;;;;5035675;28;20173;-65
2023/05/13 08:26:17;;;;;;;3.67;3.03;;;22.60;51.00;;;;;;5034179;28;20642;-65
2023/05/13 08:28:43;;;;;;;3.93;2.37;;;22.20;51.60;;;;;;5035361;28;20200;-67
2023/05/13 08:31:12;;;;;;;3.93;2.70;;;22.40;51.70;;;;;;5035430;28;20278;-66
2023/05/13 08:33:40;;;;;;;2.60;2.37;;;22.30;51.60;;;;;;5023915;28;20225;-66
2023/05/13 08:36:06;;;;;;;3.67;2.70;;;22.30;52.00;;;;;;5021114;28;20468;-68
2023/05/13 08:38:32;;;;;;;3.53;2.57;;;22.40;52.50;;;;;;5030167;28;20443;-66
2023/05/13 08:40:58;;;;;;;2.43;2.23;;;22.70;52.00;;;;;;5032575;28;20930;-66
2023/05/13 08:43:27;;;;;;;3.47;2.70;;;22.70;52.00;;;;;;5033484;28;20409;-69
2023/05/13 08:45:55;;;;;;;2.63;2.17;;;22.90;52.00;;;;;;5035524;28;20424;-66
2023/05/13 08:48:21;;;;;;;2.70;2.50;;;23.00;51.70;;;;;;5035317;28;20911;-65
2023/05/13 08:50:48;;;;;;;4.57;2.60;;;22.80;52.10;;;;;;5039086;28;20500;-67
2023/05/13 08:53:17;;;;;;;3.90;2.60;;;23.40;51.80;;;;;;5029532;28;20421;-66
2023/05/13 08:55:42;;;;;;;2.90;2.40;;;23.10;51.90;;;;;;5027573;28;20454;-67
2023/05/13 08:58:08;;;;;;;3.10;2.90;;;23.40;52.10;;;;;;5032263;28;20437;-67
2023/05/13 09:00:34;;;;;;;5.00;3.00;;;23.40;51.30;;;;;;5032013;28;20743;-67
2023/05/13 09:03:00;;;;;;;2.53;2.23;;;23.50;52.10;;;;;;5036508;28;20203;-66
2023/05/13 09:05:26;;;;;;;2.10;2.00;;;23.50;51.10;;;;;;5025955;28;20182;-66
2023/05/13 09:07:52;;;;;;;4.03;2.63;;;23.50;51.50;;;;;;5035747;28;20844;-66
2023/05/13 09:10:19;;;;;;;3.10;2.57;;;23.40;50.90;;;;;;5032635;28;20655;-66
2023/05/13 09:12:46;;;;;;;3.57;2.17;;;24.00;50.50;;;;;;5035695;28;20415;-67
2023/05/13 09:15:14;;;;;;;3.30;2.60;;;23.60;50.00;;;;;;5034361;28;21133;-66
2023/05/13 09:17:42;;;;;;;4.10;2.57;;;23.40;50.00;;;;;;5023109;28;20733;-65
2023/05/13 09:20:10;;;;;;;3.07;2.87;;;23.20;50.50;;;;;;5037221;28;21176;-66
2023/05/13 09:22:39;;;;;;;2.93;2.73;;;23.10;50.40;;;;;;5027574;28;20431;-66
2023/05/13 09:25:10;;;;;;;8.37;2.73;;;23.20;50.70;;;;;;5023113;28;20815;-67
2023/05/13 09:27:37;;;;;;;3.20;2.20;;;23.00;50.50;;;;;;5028512;28;20410;-66
2023/05/13 09:30:03;;;;;;;2.90;2.60;;;23.00;50.30;;;;;;5027051;28;20692;-67
2023/05/13 09:32:28;;;;;;;3.03;2.20;;;23.30;50.50;;;;;;5021461;28;20441;-66
2023/05/13 09:34:54;;;;;;;3.27;2.97;;;23.60;50.10;;;;;;5022977;28;20452;-65
2023/05/13 09:37:23;;;;;;;2.80;2.20;;;23.40;49.50;;;;;;5037328;28;20291;-65
2023/05/13 09:39:51;;;;;;;2.97;2.53;;;23.60;49.40;;;;;;5031991;28;20525;-65
2023/05/13 09:42:18;;;;;;;4.13;2.10;;;24.00;49.00;;;;;;5031306;28;20497;-66
2023/05/13 09:44:45;;;;;;;2.83;2.47;;;23.60;49.40;;;;;;5033439;28;20414;-65
2023/05/13 09:47:15;;;;;;;4.00;2.27;;;23.30;48.70;;;;;;5039251;28;20835;-66
2023/05/13 09:49:51;;;;;;;2.47;2.27;;;23.00;47.80;;;;;;5030487;28;20425;-66
2023/05/13 09:52:17;;;;;;;3.67;2.53;;;23.00;48.40;;;;;;5024404;28;20683;-66
2023/05/13 09:54:43;;;;;;;4.27;2.00;;;23.40;47.60;;;;;;5036283;28;20543;-66
2023/05/13 09:57:12;;;;;;;2.50;2.30;;;23.30;47.40;;;;;;5031230;28;20167;-65
2023/05/13 09:59:37;;;;;;;2.90;2.30;;;23.00;47.10;;;;;;5023809;28;20437;-67
2023/05/13 10:02:05;;;;;;;4.00;2.60;;;22.80;47.30;;;;;;5026121;28;20415;-68
2023/05/13 10:04:31;;;;;;;4.40;2.70;;;22.40;46.90;;;;;;5028576;28;20479;-67
2023/05/13 10:07:02;;;;;;;2.77;2.57;;;22.10;46.80;;;;;;5031568;28;20421;-67
2023/05/13 10:09:37;;;;;;;2.63;2.43;;;21.80;46.70;;;;;;5041409;28;20389;-67
2023/05/13 10:12:06;;;;;;;2.40;2.20;;;21.70;47.40;;;;;;5042024;28;20414;-67
2023/05/13 10:14:32;;;;;;;4.37;2.80;;;21.70;47.20;;;;;;5041681;28;20407;-68
2023/05/13 10:16:58;;;;;;;2.43;2.23;;;21.80;47.80;;;;;;5041737;28;21023;-66
2023/05/13 10:19:25;;;;;;;3.93;2.87;;;21.80;47.10;;;;;;5040356;28;20427;-67
2023/05/13 10:21:53;;;;;;;4.73;2.63;;;21.50;46.30;;;;;;5042250;28;20458;-67
2023/05/13 10:24:20;;;;;;;4.33;2.30;;;21.60;46.90;;;;;;5040845;28;20477;-66
2023/05/13 10:26:47;;;;;;;2.93;2.60;;;21.30;47.10;;;;;;5044610;28;20419;-66
2023/05/13 10:29:13;;;;;;;2.40;2.20;;;21.40;47.20;;;;;;5046071;28;20429;-67
2023/05/13 10:31:40;;;;;;;2.30;2.10;;;21.50;46.90;;;;;;5038511;28;20411;-66
2023/05/13 10:34:06;;;;;;;6.23;2.50;;;21.60;47.80;;;;;;5038547;28;20442;-68
2023/05/13 10:37:02;;;;;;;2.83;2.43;;;21.40;47.90;;;;;;5044389;28;20461;-66
2023/05/13 10:40:05;;;;;;;2.10;1.90;;;21.20;48.20;;;;;;5040074;28;20722;-66
2023/05/13 10:42:41;;;;;;;4.40;2.53;;;21.20;48.80;;;;;;5040725;28;20460;-66
2023/05/13 10:45:08;;;;;;;2.20;2.00;;;21.30;48.00;;;;;;5043674;28;20506;-66
2023/05/13 10:47:35;;;;;;;3.80;2.27;;;21.30;48.20;;;;;;5045420;28;20399;-67
2023/05/13 10:50:06;;;;;;;4.60;2.40;;;21.50;48.00;;;;;;5045506;28;20405;-66
2023/05/13 10:52:45;;;;;;;2.37;2.00;;;21.40;47.70;;;;;;5043246;28;20410;-67
2023/05/13 10:55:18;;;;;;;3.73;2.60;;;21.40;47.50;;;;;;5045245;28;20761;-68
2023/05/13 10:58:11;;;;;;;3.07;2.50;;;21.40;48.10;;;;;;5038443;28;20394;-67
2023/05/13 11:00:39;;;;;;;3.00;2.73;;;21.40;47.70;;;;;;5038597;28;20408;-67
2023/05/13 11:03:09;;;;;;;2.57;2.27;;;21.60;47.20;;;;;;5045144;28;20414;-66
2023/05/13 11:05:37;;;;;;;3.93;2.27;;;21.40;45.70;;;;;;5042408;28;20421;-67
2023/05/13 11:08:02;;;;;;;3.43;2.63;;;21.20;45.20;;;;;;5047191;28;20444;-67
2023/05/13 11:10:30;;;;;;;5.17;2.70;;;21.30;45.90;;;;;;5042098;28;20415;-67
2023/05/13 11:13:26;;;;;;;2.67;2.47;;;21.30;45.40;;;;;;5047536;28;20172;-67
2023/05/13 11:15:53;;;;;;;3.00;2.47;;;21.20;45.30;;;;;;5037686;28;20461;-67
2023/05/13 11:18:19;;;;;;;3.53;2.83;;;21.40;45.60;;;;;;5042350;28;20429;-67
2023/05/13 11:20:51;;;;;;;2.77;2.37;;;21.40;45.60;;;;;;5046290;28;20406;-67
2023/05/13 11:23:19;;;;;;;4.40;2.43;;;21.40;45.90;;;;;;5042133;28;20445;-67
2023/05/13 11:25:45;;;;;;;3.10;2.37;;;21.60;46.50;;;;;;5046889;28;20779;-67
2023/05/13 11:28:37;;;;;;;4.40;2.70;;;21.70;46.40;;;;;;5041217;28;20436;-67
2023/05/13 11:31:15;;;;;;;2.00;1.90;;;21.80;46.50;;;;;;5045258;28;20951;-67
2023/05/13 11:34:13;;;;;;;2.40;2.20;;;21.60;44.70;;;;;;5033103;28;20462;-67
2023/05/13 11:36:42;;;;;;;2.27;2.00;;;21.60;45.30;;;;;;5043212;28;20538;-68
2023/05/13 11:39:12;;;;;;;2.83;1.90;;;21.70;46.10;;;;;;5044530;28;20427;-68
2023/05/13 11:41:48;;;;;;;5.10;2.17;;;21.70;45.70;;;;;;5041200;28;20812;-68
2023/05/13 11:44:16;;;;;;;6.77;2.30;;;21.70;46.40;;;;;;5038516;28;20873;-68
2023/05/13 11:46:52;;;;;;;2.10;1.87;;;21.60;46.90;;;;;;5046681;28;20544;-67
2023/05/13 11:49:42;;;;;;;3.83;2.40;;;21.70;47.00;;;;;;5043221;28;20526;-66
2023/05/13 11:52:12;;;;;;;4.73;2.60;;;21.80;46.60;;;;;;5037130;28;20425;-67
2023/05/13 11:54:54;;;;;;;3.27;2.50;;;21.90;46.20;;;;;;5046521;28;20403;-67
2023/05/13 11:57:24;;;;;;;3.23;2.67;;;21.80;46.00;;;;;;5039131;28;20432;-67
2023/05/13 11:59:53;;;;;;;2.30;2.10;;;22.00;46.60;;;;;;5045657;28;20460;-67
2023/05/13 12:02:39;;;;;;;5.50;2.13;;;21.80;46.20;;;;;;5040429;28;20416;-67
2023/05/13 12:05:09;;;;;;;2.20;2.00;;;21.80;46.40;;;;;;5043981;28;20918;-67
2023/05/13 12:07:36;;;;;;;2.10;1.90;;;21.90;46.30;;;;;;5040681;28;20819;-66
2023/05/13 12:10:04;;;;;;;3.60;2.10;;;21.90;46.40;;;;;;5043810;28;20428;-66
2023/05/13 12:12:33;;;;;;;2.60;2.40;;;22.00;45.80;;;;;;5043766;28;20995;-67
2023/05/13 12:15:00;;;;;;;2.67;2.23;;;22.20;46.50;;;;;;5043539;28;20427;-67
2023/05/13 12:17:26;;;;;;;3.70;2.00;;;22.20;45.50;;;;;;5041057;28;20421;-67
2023/05/13 12:20:15;;;;;;;4.40;2.13;;;22.00;45.50;;;;;;5044492;28;20719;-67
2023/05/13 12:22:43;;;;;;;3.43;1.90;;;22.00;45.10;;;;;;5037051;28;20174;-69
2023/05/13 12:25:31;;;;;;;5.13;2.30;;;21.90;45.10;;;;;;5047304;28;20415;-67
2023/05/13 12:28:17;;;;;;;2.73;2.10;;;21.90;44.70;;;;;;5037914;28;20540;-67
2023/05/13 12:30:54;;;;;;;5.67;2.47;;;22.20;45.20;;;;;;5032938;28;20424;-66
2023/05/13 12:33:22;;;;;;;3.90;1.90;;;22.30;44.80;;;;;;5045695;28;20440;-67
2023/05/13 12:35:53;;;;;;;2.70;1.90;;;22.30;45.30;;;;;;5039537;28;20467;-68
2023/05/13 12:38:21;;;;;;;2.60;2.30;;;22.20;45.80;;;;;;5038755;28;20927;-68
2023/05/13 12:40:48;;;;;;;8.30;2.97;;;22.70;46.10;;;;;;5043576;28;20437;-67
2023/05/13 12:43:15;;;;;;;2.27;2.07;;;22.60;46.00;;;;;;5038644;28;20768;-66
2023/05/13 12:45:42;;;;;;;3.10;1.93;;;22.70;46.40;;;;;;5043138;28;20472;-67
2023/05/13 12:48:08;;;;;;;3.70;2.40;;;23.10;46.10;;;;;;5041720;28;20433;-66
2023/05/13 12:50:34;;;;;;;5.77;2.43;;;22.70;46.00;;;;;;5042876;28;20829;-67